createdAt,value
2023-04-13T00:01:26.039Z,5.72
2023-04-13T00:03:53.329Z,4.85
2023-04-13T00:06:21.677Z,5.22
2023-04-13T00:08:48.718Z,6.80
2023-04-13T00:11:15.777Z,6.18
2023-04-13T00:13:47.711Z,6.10
2023-04-13T00:16:16.547Z,8.73
2023-04-13T00:18:43.605Z,7.03
2023-04-13T00:21:10.805Z,6.00
2023-04-13T00:23:37.775Z,6.05
2023-04-13T00:26:05.062Z,5.82
2023-04-13T00:28:32.034Z,6.13
2023-04-13T00:30:59.125Z,6.22
2023-04-13T00:33:26.169Z,5.45
2023-04-13T00:35:53.129Z,7.10
2023-04-13T00:38:20.110Z,6.78
2023-04-13T00:40:47.172Z,5.78
2023-04-13T00:43:15.258Z,5.97
2023-04-13T00:45:42.811Z,6.13
2023-04-13T00:48:11.203Z,5.88
2023-04-13T00:50:40.237Z,5.32
2023-04-13T00:53:10.973Z,5.63
2023-04-13T00:55:39.613Z,6.30
2023-04-13T00:58:06.948Z,5.85
2023-04-13T01:00:34.082Z,6.55
2023-04-13T01:03:02.674Z,5.50
2023-04-13T01:05:40.320Z,4.90
2023-04-13T01:08:33.103Z,6.70
2023-04-13T01:11:14.501Z,5.13
2023-04-13T01:13:52.974Z,6.20
2023-04-13T01:16:24.683Z,4.75
2023-04-13T01:18:54.461Z,6.00
2023-04-13T01:21:28.185Z,4.30
2023-04-13T01:24:21.975Z,5.05
2023-04-13T01:27:04.464Z,4.97
2023-04-13T01:29:32.632Z,4.07
2023-04-13T01:32:00.690Z,5.13
2023-04-13T01:34:28.104Z,4.78
2023-04-13T01:36:56.252Z,5.68
2023-04-13T01:39:25.785Z,5.05
2023-04-13T01:41:52.719Z,5.35
2023-04-13T01:44:19.689Z,5.30
2023-04-13T01:46:54.702Z,6.60
2023-04-13T01:49:23.246Z,5.68
2023-04-13T01:51:54.662Z,4.38
2023-04-13T01:54:25.952Z,4.70
2023-04-13T01:56:57.262Z,5.28
2023-04-13T01:59:24.329Z,6.13
2023-04-13T02:01:51.356Z,5.35
2023-04-13T02:04:18.612Z,7.35
2023-04-13T02:06:46.808Z,5.65
2023-04-13T02:09:13.789Z,5.32
2023-04-13T02:11:41.557Z,6.20
2023-04-13T02:14:09.663Z,5.70
2023-04-13T02:16:36.750Z,5.55
2023-04-13T02:19:03.734Z,5.10
2023-04-13T02:21:30.732Z,5.00
2023-04-13T02:23:58.048Z,5.45
2023-04-13T02:26:26.372Z,6.15
2023-04-13T02:28:53.633Z,4.90
2023-04-13T02:31:23.636Z,4.95
2023-04-13T02:33:51.852Z,6.22
2023-04-13T02:36:19.345Z,5.40
2023-04-13T02:38:46.313Z,4.80
2023-04-13T02:41:13.284Z,6.38
2023-04-13T02:43:40.701Z,5.55
2023-04-13T02:46:09.005Z,5.68
2023-04-13T02:48:36.964Z,4.97
2023-04-13T02:51:04.254Z,5.72
2023-04-13T02:53:31.144Z,5.18
2023-04-13T02:55:58.069Z,5.03
2023-04-13T02:58:26.045Z,5.63
2023-04-13T03:00:53.012Z,5.90
2023-04-13T03:03:20.630Z,5.35
2023-04-13T03:05:50.759Z,4.95
2023-04-13T03:08:17.847Z,5.43
2023-04-13T03:10:47.972Z,5.82
2023-04-13T03:13:15.069Z,5.95
2023-04-13T03:15:42.373Z,6.15
2023-04-13T03:18:09.331Z,5.60
2023-04-13T03:20:36.305Z,6.05
2023-04-13T03:23:05.898Z,5.00
2023-04-13T03:25:34.054Z,6.35
2023-04-13T03:28:01.840Z,6.07
2023-04-13T03:30:29.533Z,6.63
2023-04-13T03:32:56.772Z,5.07
2023-04-13T03:35:23.809Z,4.43
2023-04-13T03:37:50.751Z,5.80
2023-04-13T03:40:17.739Z,5.07
2023-04-13T03:42:44.742Z,5.47
2023-04-13T03:45:12.818Z,5.53
2023-04-13T03:47:39.980Z,5.28
2023-04-13T03:50:07.464Z,5.78
2023-04-13T03:52:34.432Z,5.18
2023-04-13T03:55:02.218Z,5.25
2023-04-13T03:57:30.270Z,4.97
2023-04-13T03:59:57.394Z,5.03
2023-04-13T04:02:24.767Z,5.07
2023-04-13T04:04:52.084Z,6.35
2023-04-13T04:07:23.128Z,5.85
2023-04-13T04:09:50.468Z,4.63
2023-04-13T04:12:17.410Z,5.38
2023-04-13T04:14:44.330Z,5.18
2023-04-13T04:17:11.330Z,4.53
2023-04-13T04:19:38.301Z,5.25
2023-04-13T04:22:07.250Z,4.88
2023-04-13T04:24:35.064Z,4.97
2023-04-13T04:27:02.681Z,4.80
2023-04-13T04:29:36.097Z,5.35
2023-04-13T04:32:05.825Z,5.40
2023-04-13T04:34:32.879Z,5.32
2023-04-13T04:37:03.098Z,6.38
2023-04-13T04:39:33.030Z,4.88
2023-04-13T04:42:07.732Z,4.68
2023-04-13T04:44:34.714Z,5.45
2023-04-13T04:47:02.920Z,6.70
2023-04-13T04:49:30.429Z,5.82
2023-04-13T04:51:58.418Z,4.78
2023-04-13T04:54:25.860Z,5.43
2023-04-13T04:56:53.726Z,5.93
2023-04-13T04:59:20.782Z,5.03
2023-04-13T05:01:49.653Z,5.90
2023-04-13T05:04:17.236Z,5.38
2023-04-13T05:06:45.005Z,5.90
2023-04-13T05:09:12.077Z,5.55
2023-04-13T05:11:39.266Z,6.40
2023-04-13T05:14:06.459Z,5.53
2023-04-13T05:16:34.629Z,4.57
2023-04-13T05:19:02.414Z,6.03
2023-04-13T05:21:29.460Z,4.55
2023-04-13T05:23:57.034Z,5.20
2023-04-13T05:26:25.573Z,5.25
2023-04-13T05:28:52.863Z,5.18
2023-04-13T05:31:20.396Z,5.13
2023-04-13T05:33:48.112Z,6.32
2023-04-13T05:36:15.173Z,4.65
2023-04-13T05:38:42.958Z,5.05
2023-04-13T05:41:10.550Z,4.55
2023-04-13T05:43:37.631Z,4.72
2023-04-13T05:46:04.820Z,4.55
2023-04-13T05:48:34.159Z,6.20
2023-04-13T05:51:01.475Z,5.35
2023-04-13T05:53:28.507Z,4.88
2023-04-13T05:55:55.838Z,3.90
2023-04-13T05:58:22.828Z,4.28
2023-04-13T06:00:49.754Z,4.55
2023-04-13T06:03:17.336Z,4.95
2023-04-13T06:05:44.871Z,4.10
2023-04-13T06:08:12.130Z,5.10
2023-04-13T06:10:39.569Z,5.72
2023-04-13T06:13:06.877Z,3.97
2023-04-13T06:15:36.324Z,5.75
2023-04-13T06:18:03.382Z,4.90
2023-04-13T06:20:31.838Z,4.32
2023-04-13T06:22:58.732Z,3.75
2023-04-13T06:25:26.040Z,5.53
2023-04-13T06:27:53.750Z,5.05
2023-04-13T06:30:20.896Z,4.75
2023-04-13T06:32:47.955Z,5.05
2023-04-13T06:35:15.552Z,4.20
2023-04-13T06:37:42.792Z,5.13
2023-04-13T06:40:12.851Z,4.28
2023-04-13T06:42:41.540Z,4.65
2023-04-13T06:45:12.441Z,4.80
2023-04-13T06:47:43.051Z,5.00
2023-04-13T06:50:14.233Z,5.07
2023-04-13T06:52:46.636Z,4.20
2023-04-13T06:55:14.313Z,5.40
2023-04-13T06:57:41.740Z,4.80
2023-04-13T07:00:25.912Z,5.68
2023-04-13T07:02:56.004Z,5.25
2023-04-13T07:05:23.037Z,4.32
2023-04-13T07:07:50.139Z,5.35
2023-04-13T07:10:18.176Z,5.78
2023-04-13T07:12:45.206Z,5.30
2023-04-13T07:15:12.156Z,5.18
2023-04-13T07:17:39.179Z,5.00
2023-04-13T07:20:07.647Z,5.13
2023-04-13T07:22:35.508Z,6.07
2023-04-13T07:25:03.130Z,4.72
2023-04-13T07:27:30.266Z,5.35
2023-04-13T07:29:57.726Z,5.07
2023-04-13T07:32:30.907Z,4.93
2023-04-13T07:35:02.093Z,5.53
2023-04-13T07:37:29.871Z,5.00
2023-04-13T07:39:57.162Z,5.38
2023-04-13T07:42:25.261Z,5.25
2023-04-13T07:44:58.235Z,4.63
2023-04-13T07:47:25.739Z,5.47
2023-04-13T07:49:53.474Z,5.10
2023-04-13T07:52:21.179Z,6.13
2023-04-13T07:54:48.256Z,4.63
2023-04-13T07:57:17.684Z,5.50
2023-04-13T07:59:44.803Z,4.97
2023-04-13T08:02:12.677Z,6.22
2023-04-13T08:04:40.020Z,5.47
2023-04-13T08:07:08.430Z,4.60
2023-04-13T08:09:36.665Z,4.55
2023-04-13T08:12:04.066Z,4.97
2023-04-13T08:14:31.202Z,5.50
2023-04-13T08:16:58.685Z,4.32
2023-04-13T08:19:25.684Z,4.70
2023-04-13T08:21:52.770Z,5.10
2023-04-13T08:24:22.521Z,4.82
2023-04-13T08:26:49.886Z,5.40
2023-04-13T08:29:16.942Z,4.90
2023-04-13T08:31:44.054Z,4.13
2023-04-13T08:34:11.874Z,5.43
2023-04-13T08:36:39.323Z,4.38
2023-04-13T08:39:09.778Z,3.92
2023-04-13T08:41:42.053Z,4.80
2023-04-13T08:44:09.090Z,4.40
2023-04-13T08:46:36.836Z,5.30
2023-04-13T08:49:04.405Z,5.13
2023-04-13T08:51:34.065Z,4.05
2023-04-13T08:54:01.198Z,4.22
2023-04-13T08:56:42.072Z,4.78
2023-04-13T08:59:15.373Z,4.78
2023-04-13T09:01:45.496Z,4.10
2023-04-13T09:04:14.693Z,4.63
2023-04-13T09:06:44.824Z,4.97
2023-04-13T09:09:15.932Z,4.85
2023-04-13T09:11:43.535Z,4.95
2023-04-13T09:14:10.816Z,5.00
2023-04-13T09:16:42.978Z,4.72
2023-04-13T09:19:10.440Z,4.45
2023-04-13T09:21:39.854Z,4.57
2023-04-13T09:24:07.974Z,5.40
2023-04-13T09:26:49.357Z,4.90
2023-04-13T09:29:20.351Z,4.72
2023-04-13T09:31:48.574Z,3.95
2023-04-13T09:34:27.075Z,4.82
2023-04-13T09:36:56.276Z,4.93
2023-04-13T09:39:29.117Z,5.15
2023-04-13T09:41:58.011Z,5.57
2023-04-13T09:44:28.446Z,7.53
2023-04-13T09:47:03.591Z,4.05
2023-04-13T09:49:41.155Z,5.25
2023-04-13T09:52:24.878Z,6.00
2023-04-13T09:54:57.345Z,5.15
2023-04-13T09:57:31.960Z,4.65
2023-04-13T10:00:01.826Z,4.45
2023-04-13T10:02:29.459Z,4.55
2023-04-13T10:04:57.712Z,5.68
2023-04-13T10:07:28.913Z,5.07
2023-04-13T10:09:55.884Z,4.70
2023-04-13T10:12:25.169Z,5.82
2023-04-13T10:15:08.132Z,5.30
2023-04-13T10:17:52.498Z,4.38
2023-04-13T10:20:20.035Z,4.63
2023-04-13T10:22:47.392Z,5.43
2023-04-13T10:25:29.536Z,5.00
2023-04-13T10:28:00.836Z,4.88
2023-04-13T10:30:28.541Z,5.88
2023-04-13T10:33:10.089Z,4.30
2023-04-13T10:35:38.465Z,5.30
2023-04-13T10:38:08.352Z,8.45
2023-04-13T10:40:48.499Z,7.85
2023-04-13T10:43:32.347Z,7.45
2023-04-13T10:46:11.523Z,8.15
2023-04-13T10:48:39.012Z,5.53
2023-04-13T10:51:06.283Z,6.72
2023-04-13T10:53:35.311Z,5.68
2023-04-13T10:56:02.483Z,7.10
2023-04-13T10:58:32.966Z,5.90
2023-04-13T11:01:00.454Z,5.43
2023-04-13T11:03:28.820Z,4.97
2023-04-13T11:05:58.439Z,4.97
2023-04-13T11:08:26.914Z,4.60
2023-04-13T11:10:57.534Z,4.88
2023-04-13T11:13:29.876Z,4.78
2023-04-13T11:16:06.891Z,5.32
2023-04-13T11:18:33.930Z,5.75
2023-04-13T11:21:05.900Z,4.80
2023-04-13T11:23:36.318Z,5.22
2023-04-13T11:26:05.034Z,5.20
2023-04-13T11:28:40.343Z,4.57
2023-04-13T11:31:07.791Z,5.05
2023-04-13T11:33:37.909Z,4.60
2023-04-13T11:36:07.954Z,4.10
2023-04-13T11:38:35.228Z,4.82
2023-04-13T11:43:37.459Z,4.68
2023-04-13T11:46:04.649Z,5.25
2023-04-13T11:48:32.751Z,5.95
2023-04-13T11:51:00.091Z,5.32
2023-04-13T11:53:27.844Z,6.07
2023-04-13T11:55:55.279Z,4.68
2023-04-13T11:58:23.034Z,5.10
2023-04-13T12:00:50.121Z,4.38
2023-04-13T12:03:34.697Z,5.05
2023-04-13T12:06:06.633Z,4.97
2023-04-13T12:08:34.223Z,5.28
2023-04-13T12:11:36.739Z,5.03
2023-04-13T12:14:07.147Z,5.40
2023-04-13T12:19:11.553Z,4.90
2023-04-13T12:21:57.052Z,4.32
2023-04-13T12:24:39.180Z,4.43
2023-04-13T12:29:41.044Z,4.85
2023-04-13T12:32:15.053Z,6.07
2023-04-13T12:34:43.613Z,4.50
2023-04-13T12:37:13.536Z,5.55
2023-04-13T12:39:42.337Z,6.32
2023-04-13T12:42:09.312Z,5.18
2023-04-13T12:44:36.259Z,4.30
2023-04-13T12:47:03.595Z,4.82
2023-04-13T12:49:31.113Z,4.97
2023-04-13T12:51:58.027Z,5.13
2023-04-13T12:54:25.150Z,4.35
2023-04-13T12:56:52.231Z,5.07
2023-04-13T12:59:22.110Z,3.78
2023-04-13T13:01:49.585Z,4.93
2023-04-13T13:04:17.087Z,4.93
2023-04-13T13:06:44.074Z,3.95
2023-04-13T13:09:11.122Z,4.65
2023-04-13T13:11:38.226Z,5.47
2023-04-13T13:14:05.781Z,4.70
2023-04-13T13:16:32.994Z,3.80
2023-04-13T13:18:59.997Z,6.20
2023-04-13T13:21:27.474Z,4.55
2023-04-13T13:23:55.700Z,3.85
2023-04-13T13:26:25.147Z,4.47
2023-04-13T13:28:54.515Z,3.90
2023-04-13T13:31:21.810Z,5.45
2023-04-13T13:33:48.820Z,4.38
2023-04-13T13:36:16.224Z,5.30
2023-04-13T13:38:43.541Z,4.47
2023-04-13T13:41:10.988Z,5.10
2023-04-13T13:43:38.896Z,5.13
2023-04-13T13:46:06.797Z,6.05
2023-04-13T13:48:34.106Z,5.38
2023-04-13T13:51:01.136Z,5.15
2023-04-13T13:53:28.211Z,5.03
2023-04-13T13:55:56.373Z,4.63
2023-04-13T13:58:23.624Z,4.57
2023-04-13T14:00:50.818Z,4.85
2023-04-13T14:03:18.096Z,3.58
2023-04-13T14:05:45.170Z,4.13
2023-04-13T14:08:12.621Z,4.35
2023-04-13T14:10:39.844Z,3.55
2023-04-13T14:13:06.767Z,4.78
2023-04-13T14:15:33.870Z,4.43
2023-04-13T14:18:09.121Z,3.85
2023-04-13T14:20:39.229Z,3.90
2023-04-13T14:23:06.904Z,3.45
2023-04-13T14:25:33.875Z,4.85
2023-04-13T14:28:01.055Z,4.25
2023-04-13T14:30:28.621Z,3.53
2023-04-13T14:32:56.772Z,3.25
2023-04-13T14:35:24.351Z,3.50
2023-04-13T14:37:51.547Z,3.58
2023-04-13T14:40:22.036Z,3.10
2023-04-13T14:42:50.945Z,3.60
2023-04-13T14:45:18.386Z,3.92
2023-04-13T14:47:45.576Z,3.50
2023-04-13T14:50:13.207Z,4.20
2023-04-13T14:52:44.175Z,3.67
2023-04-13T14:55:11.529Z,4.10
2023-04-13T14:57:39.230Z,3.47
2023-04-13T15:00:26.064Z,3.40
2023-04-13T15:02:53.585Z,3.38
2023-04-13T15:05:21.127Z,3.95
2023-04-13T15:07:48.635Z,3.22
2023-04-13T15:10:16.534Z,3.53
2023-04-13T15:12:43.756Z,3.10
2023-04-13T15:15:11.129Z,2.65
2023-04-13T15:17:38.095Z,2.95
2023-04-13T15:20:07.533Z,4.85
2023-04-13T15:22:36.176Z,3.13
2023-04-13T15:25:03.754Z,3.60
2023-04-13T15:27:30.938Z,3.30
2023-04-13T15:30:03.663Z,3.65
2023-04-13T15:32:33.583Z,4.28
2023-04-13T15:35:01.365Z,4.07
2023-04-13T15:37:28.388Z,3.92
2023-04-13T15:39:55.339Z,2.78
2023-04-13T15:42:22.948Z,4.60
2023-04-13T15:44:50.491Z,3.10
2023-04-13T15:47:17.442Z,3.03
2023-04-13T15:49:44.408Z,2.88
2023-04-13T15:52:11.503Z,3.33
2023-04-13T15:54:38.482Z,3.75
2023-04-13T15:57:05.451Z,3.80
2023-04-13T15:59:34.327Z,3.03
2023-04-13T16:02:02.202Z,3.95
2023-04-13T16:04:29.884Z,3.58
2023-04-13T16:07:11.950Z,2.88
2023-04-13T16:09:47.450Z,3.00
2023-04-13T16:12:14.639Z,3.70
2023-04-13T16:14:45.458Z,3.05
2023-04-13T16:17:15.092Z,3.70
2023-04-13T16:19:46.679Z,3.25
2023-04-13T16:22:13.992Z,3.25
2023-04-13T16:24:41.234Z,3.50
2023-04-13T16:27:08.935Z,3.97
2023-04-13T16:29:36.084Z,3.92
2023-04-13T16:32:03.035Z,3.67
2023-04-13T16:34:29.963Z,3.53
2023-04-13T16:36:57.829Z,5.38
2023-04-13T16:39:25.088Z,4.80
2023-04-13T16:41:52.020Z,4.25
2023-04-13T16:44:19.193Z,4.50
2023-04-13T16:46:46.602Z,4.88
2023-04-13T16:49:13.746Z,4.53
2023-04-13T16:51:41.035Z,4.90
2023-04-13T16:54:11.684Z,4.38
2023-04-13T16:56:38.640Z,5.13
2023-04-13T16:59:05.745Z,4.32
2023-04-13T17:01:32.938Z,3.65
2023-04-13T17:03:59.911Z,4.57
2023-04-13T17:06:29.360Z,4.32
2023-04-13T17:08:56.369Z,4.38
2023-04-13T17:11:23.500Z,3.88
2023-04-13T17:13:51.477Z,4.35
2023-04-13T17:16:18.558Z,4.47
2023-04-13T17:18:45.884Z,5.38
2023-04-13T17:21:13.869Z,4.53
2023-04-13T17:23:41.217Z,5.97
2023-04-13T17:26:08.234Z,4.75
2023-04-13T17:28:35.352Z,4.15
2023-04-13T17:31:02.361Z,5.30
2023-04-13T17:33:29.374Z,5.80
2023-04-13T17:35:56.380Z,5.13
2023-04-13T17:38:23.417Z,4.55
2023-04-13T17:40:51.146Z,5.93
2023-04-13T17:43:18.333Z,4.57
2023-04-13T17:45:45.322Z,4.60
2023-04-13T17:48:12.737Z,5.82
2023-04-13T17:50:39.772Z,5.15
2023-04-13T17:53:06.760Z,5.75
2023-04-13T17:55:37.540Z,5.25
2023-04-13T17:58:05.567Z,4.63
2023-04-13T18:00:32.548Z,4.68
2023-04-13T18:03:00.235Z,5.05
2023-04-13T18:05:28.917Z,5.35
2023-04-13T18:07:55.890Z,5.82
2023-04-13T18:10:22.903Z,5.07
2023-04-13T18:12:49.957Z,5.07
2023-04-13T18:15:16.957Z,4.50
2023-04-13T18:17:43.950Z,5.55
2023-04-13T18:20:11.541Z,4.72
2023-04-13T18:22:38.532Z,4.28
2023-04-13T18:25:06.328Z,4.57
2023-04-13T18:27:33.449Z,4.97
2023-04-13T18:30:00.487Z,4.88
2023-04-13T18:32:27.548Z,5.30
2023-04-13T18:34:54.589Z,6.45
2023-04-13T18:37:21.492Z,6.63
2023-04-13T18:39:48.408Z,5.53
2023-04-13T18:42:15.389Z,5.30
2023-04-13T18:44:42.312Z,6.13
2023-04-13T18:47:09.389Z,6.30
2023-04-13T18:49:36.583Z,5.18
2023-04-13T18:52:03.628Z,5.30
2023-04-13T18:54:32.493Z,4.43
2023-04-13T18:56:59.449Z,5.13
2023-04-13T18:59:28.205Z,5.32
2023-04-13T19:01:55.313Z,3.85
2023-04-13T19:04:22.494Z,3.10
2023-04-13T19:06:49.504Z,5.82
2023-04-13T19:09:16.763Z,4.35
2023-04-13T19:12:03.685Z,4.70
2023-04-13T19:14:31.121Z,3.70
2023-04-13T19:16:59.200Z,4.13
2023-04-13T19:19:26.633Z,4.78
2023-04-13T19:21:54.780Z,4.32
2023-04-13T19:24:22.739Z,5.25
2023-04-13T19:26:49.708Z,4.55
2023-04-13T19:29:17.612Z,4.57
2023-04-13T19:31:45.383Z,3.80
2023-04-13T19:34:12.742Z,4.88
2023-04-13T19:36:40.874Z,6.00
2023-04-13T19:39:08.917Z,4.55
2023-04-13T19:41:37.912Z,3.92
2023-04-13T19:44:05.547Z,6.10
2023-04-13T19:46:35.790Z,6.10
2023-04-13T19:49:03.428Z,5.45
2023-04-13T19:51:32.955Z,5.18
2023-04-13T19:54:08.020Z,5.07
2023-04-13T19:56:35.172Z,4.85
2023-04-13T19:59:04.445Z,4.93
2023-04-13T20:01:34.023Z,6.22
2023-04-13T20:04:04.087Z,4.68
2023-04-13T20:06:33.283Z,4.30
2023-04-13T20:09:14.166Z,5.63
2023-04-13T20:11:41.972Z,5.93
2023-04-13T20:14:11.425Z,5.72
2023-04-13T20:16:38.755Z,4.68
2023-04-13T20:19:06.907Z,6.82
2023-04-13T20:21:34.553Z,5.80
2023-04-13T20:24:02.486Z,6.38
2023-04-13T20:26:31.624Z,6.75
2023-04-13T20:29:04.381Z,5.30
2023-04-13T20:31:33.228Z,6.20
2023-04-13T20:34:00.837Z,5.07
2023-04-13T20:36:28.199Z,3.83
2023-04-13T20:39:02.190Z,4.20
2023-04-13T20:41:32.369Z,4.40
2023-04-13T20:44:00.129Z,4.22
2023-04-13T20:46:34.417Z,3.15
2023-04-13T20:49:04.455Z,3.15
2023-04-13T20:51:33.659Z,3.15
2023-04-13T20:54:03.058Z,4.00
2023-04-13T20:56:30.306Z,3.63
2023-04-13T20:58:58.124Z,3.75
2023-04-13T21:01:25.894Z,3.95
2023-04-13T21:03:53.487Z,4.40
2023-04-13T21:06:22.857Z,3.85
2023-04-13T21:08:50.114Z,3.63
2023-04-13T21:11:17.032Z,4.35
2023-04-13T21:13:44.014Z,4.05
2023-04-13T21:16:12.283Z,5.50
2023-04-13T21:18:41.573Z,3.70
2023-04-13T21:21:08.971Z,3.22
2023-04-13T21:23:37.439Z,3.45
2023-04-13T21:26:04.812Z,4.40
2023-04-13T21:28:31.924Z,3.55
2023-04-13T21:30:59.343Z,3.03
2023-04-13T21:33:26.526Z,5.25
2023-04-13T21:35:53.512Z,4.72
2023-04-13T21:38:21.485Z,4.78
2023-04-13T21:40:48.719Z,5.07
2023-04-13T21:43:15.818Z,4.78
2023-04-13T21:45:42.905Z,4.95
2023-04-13T21:48:09.865Z,4.38
2023-04-13T21:50:36.814Z,4.53
2023-04-13T21:53:04.121Z,4.55
2023-04-13T21:55:31.158Z,6.55
2023-04-13T21:57:58.149Z,4.30
2023-04-13T22:00:25.369Z,4.43
2023-04-13T22:02:53.902Z,3.30
2023-04-13T22:05:21.279Z,5.00
2023-04-13T22:07:48.200Z,7.13
2023-04-13T22:10:15.216Z,4.90
2023-04-13T22:12:42.120Z,5.03
2023-04-13T22:15:09.417Z,5.93
2023-04-13T22:17:36.935Z,5.05
2023-04-13T22:20:04.744Z,5.30
2023-04-13T22:22:31.763Z,5.13
2023-04-13T22:24:58.705Z,4.05
2023-04-13T22:27:26.282Z,4.85
2023-04-13T22:29:56.106Z,5.40
2023-04-13T22:32:23.098Z,5.50
2023-04-13T22:34:50.779Z,4.07
2023-04-13T22:37:17.915Z,5.72
2023-04-13T22:39:44.849Z,5.00
2023-04-13T22:42:11.849Z,5.20
2023-04-13T22:44:38.894Z,6.95
2023-04-13T22:47:06.058Z,6.00
2023-04-13T22:49:33.179Z,6.07
2023-04-13T22:52:00.528Z,6.15
2023-04-13T22:54:27.522Z,5.82
2023-04-13T22:56:54.651Z,6.43
2023-04-13T22:59:21.690Z,7.25
2023-04-13T23:01:49.173Z,6.65
2023-04-13T23:04:16.568Z,6.63
2023-04-13T23:06:44.935Z,6.75
2023-04-13T23:09:12.039Z,6.78
2023-04-13T23:11:39.022Z,5.57
2023-04-13T23:14:06.903Z,8.10
2023-04-13T23:16:34.450Z,7.30
2023-04-13T23:19:01.688Z,7.25
2023-04-13T23:21:29.878Z,8.43
2023-04-13T23:23:57.087Z,7.28
2023-04-13T23:26:24.051Z,7.22
2023-04-13T23:28:51.097Z,7.40
2023-04-13T23:31:18.144Z,7.32
2023-04-13T23:33:45.131Z,7.03
2023-04-13T23:36:12.177Z,6.70
2023-04-13T23:38:39.128Z,7.18
2023-04-13T23:41:06.076Z,7.05
2023-04-13T23:43:33.015Z,7.07
2023-04-13T23:46:00.117Z,7.20
2023-04-13T23:48:27.462Z,6.72
2023-04-13T23:50:54.779Z,7.13
2023-04-13T23:53:21.741Z,7.18
2023-04-13T23:55:48.714Z,7.35
2023-04-13T23:58:15.908Z,6.40
